createdAt,value
2018-11-04T00:01:41.338Z,10.60
2018-11-04T00:04:09.538Z,10.60
2018-11-04T00:06:37.493Z,10.70
2018-11-04T00:09:07.186Z,10.60
2018-11-04T00:11:34.772Z,10.60
2018-11-04T00:14:02.641Z,10.50
2018-11-04T00:16:31.520Z,10.40
2018-11-04T00:18:59.115Z,10.30
2018-11-04T00:21:27.195Z,10.30
2018-11-04T00:23:55.108Z,10.30
2018-11-04T00:26:24.221Z,10.40
2018-11-04T00:28:51.835Z,10.40
2018-11-04T00:31:19.993Z,10.40
2018-11-04T00:33:48.072Z,10.40
2018-11-04T00:36:15.742Z,10.40
2018-11-04T00:38:43.925Z,10.40
2018-11-04T00:41:11.571Z,10.40
2018-11-04T00:43:39.152Z,10.40
2018-11-04T00:46:06.875Z,10.40
2018-11-04T00:48:35.463Z,10.30
2018-11-04T00:51:04.235Z,10.30
2018-11-04T00:53:32.207Z,10.20
2018-11-04T00:56:00.146Z,10.20
2018-11-04T00:58:27.674Z,10.20
2018-11-04T01:00:55.885Z,10.20
2018-11-04T01:03:24.127Z,10.20
2018-11-04T01:05:52.425Z,10.20
2018-11-04T01:08:19.955Z,10.10
2018-11-04T01:10:48.132Z,10.10
2018-11-04T01:13:15.844Z,10.10
2018-11-04T01:15:44.044Z,10.10
2018-11-04T01:18:12.820Z,10.20
2018-11-04T01:20:40.347Z,10.20
2018-11-04T01:23:07.865Z,10.20
2018-11-04T01:25:35.811Z,10.20
2018-11-04T01:28:04.129Z,10.10
2018-11-04T01:30:31.677Z,10.10
2018-11-04T01:33:00.016Z,10.10
2018-11-04T01:35:28.524Z,10.00
2018-11-04T01:37:55.959Z,10.00
2018-11-04T01:40:23.484Z,10.00
2018-11-04T01:42:51.759Z,10.00
2018-11-04T01:45:19.343Z,10.10
2018-11-04T01:47:47.864Z,10.10
2018-11-04T01:50:15.420Z,10.10
2018-11-04T01:52:44.799Z,10.00
2018-11-04T01:55:13.260Z,10.00
2018-11-04T01:57:40.803Z,10.00
2018-11-04T02:00:11.483Z,10.00
2018-11-04T02:02:39.075Z,10.00
2018-11-04T02:05:07.632Z,10.00
2018-11-04T02:07:36.147Z,10.00
2018-11-04T02:10:04.405Z,10.00
2018-11-04T02:12:32.031Z,10.00
2018-11-04T02:14:59.682Z,10.00
2018-11-04T02:17:28.375Z,10.00
2018-11-04T02:19:55.915Z,10.00
2018-11-04T02:22:23.456Z,10.00
2018-11-04T02:24:51.576Z,10.00
2018-11-04T02:27:19.760Z,10.00
2018-11-04T02:29:47.377Z,10.00
2018-11-04T02:32:15.608Z,10.00
2018-11-04T02:34:43.811Z,10.00
2018-11-04T02:37:11.428Z,10.00
2018-11-04T02:39:38.940Z,10.00
2018-11-04T02:42:06.584Z,10.00
2018-11-04T02:44:34.104Z,10.00
2018-11-04T02:47:02.958Z,9.90
2018-11-04T02:49:31.420Z,9.90
2018-11-04T02:51:58.944Z,10.00
2018-11-04T02:54:27.443Z,10.00
2018-11-04T02:56:55.480Z,9.90
2018-11-04T02:59:23.003Z,9.90
2018-11-04T03:01:50.563Z,9.90
2018-11-04T03:04:18.244Z,10.00
2018-11-04T03:06:46.275Z,10.00
2018-11-04T03:09:14.740Z,10.00
2018-11-04T03:11:42.331Z,10.00
2018-11-04T03:14:10.042Z,10.00
2018-11-04T03:16:39.456Z,9.90
2018-11-04T03:19:06.988Z,10.00
2018-11-04T03:21:36.160Z,10.00
2018-11-04T03:24:04.904Z,10.00
2018-11-04T03:26:32.451Z,10.00
2018-11-04T03:28:59.975Z,10.00
2018-11-04T03:31:28.168Z,10.00
2018-11-04T03:33:56.171Z,9.90
2018-11-04T03:36:23.780Z,9.90
2018-11-04T03:38:51.384Z,10.00
2018-11-04T03:41:19.392Z,9.90
2018-11-04T03:43:48.170Z,10.00
2018-11-04T03:46:17.187Z,10.00
2018-11-04T03:48:45.182Z,10.00
2018-11-04T03:51:13.248Z,10.10
2018-11-04T03:53:40.760Z,10.10
2018-11-04T03:56:08.760Z,10.10
2018-11-04T03:58:36.378Z,10.10
2018-11-04T04:01:03.952Z,10.10
2018-11-04T04:03:31.619Z,10.10
2018-11-04T04:06:00.116Z,10.10
2018-11-04T04:08:27.633Z,10.00
2018-11-04T04:10:55.175Z,10.00
2018-11-04T04:13:22.751Z,10.10
2018-11-04T04:15:50.273Z,10.10
2018-11-04T04:18:18.365Z,10.20
2018-11-04T04:20:45.918Z,10.20
2018-11-04T04:23:14.928Z,10.20
2018-11-04T04:25:43.161Z,10.20
2018-11-04T04:28:11.418Z,10.20
2018-11-04T04:30:38.946Z,10.20
2018-11-04T04:33:06.919Z,10.20
2018-11-04T04:35:34.447Z,10.20
2018-11-04T04:38:01.951Z,10.20
2018-11-04T04:40:30.051Z,10.20
2018-11-04T04:42:58.167Z,10.20
2018-11-04T04:45:27.418Z,10.10
2018-11-04T04:47:55.547Z,10.10
2018-11-04T04:50:23.113Z,10.00
2018-11-04T04:52:50.625Z,10.00
2018-11-04T04:55:18.721Z,9.90
2018-11-04T04:57:46.320Z,9.90
2018-11-04T05:00:13.823Z,9.80
2018-11-04T05:02:41.599Z,9.70
2018-11-04T05:05:09.217Z,9.70
2018-11-04T05:07:37.334Z,9.70
2018-11-04T05:10:06.546Z,9.70
2018-11-04T05:12:34.129Z,9.70
2018-11-04T05:15:01.645Z,9.70
2018-11-04T05:17:30.460Z,9.60
2018-11-04T05:19:57.979Z,9.50
2018-11-04T05:22:25.599Z,9.50
2018-11-04T05:24:53.993Z,9.40
2018-11-04T05:27:22.368Z,9.40
2018-11-04T05:29:49.901Z,9.40
2018-11-04T05:32:17.991Z,9.30
2018-11-04T05:34:45.527Z,9.40
2018-11-04T05:37:13.139Z,9.30
2018-11-04T05:39:41.506Z,9.30
2018-11-04T05:42:09.776Z,9.20
2018-11-04T05:44:37.300Z,9.20
2018-11-04T05:47:05.776Z,9.30
2018-11-04T05:49:33.698Z,9.30
2018-11-04T05:52:01.240Z,9.20
2018-11-04T05:54:29.208Z,9.20
2018-11-04T05:56:58.112Z,9.20
2018-11-04T05:59:25.624Z,9.20
2018-11-04T06:01:53.173Z,9.20
2018-11-04T06:04:20.755Z,9.20
2018-11-04T06:06:49.013Z,9.20
2018-11-04T06:09:16.608Z,9.10
2018-11-04T06:11:44.133Z,9.10
2018-11-04T06:14:11.752Z,9.10
2018-11-04T06:16:40.198Z,9.10
2018-11-04T06:19:07.746Z,9.10
2018-11-04T06:21:35.456Z,9.20
2018-11-04T06:24:04.570Z,9.10
2018-11-04T06:26:32.154Z,9.10
2018-11-04T06:28:59.778Z,9.10
2018-11-04T06:31:27.363Z,9.10
2018-11-04T06:33:55.563Z,9.20
2018-11-04T06:36:23.596Z,9.10
2018-11-04T06:38:52.201Z,9.30
2018-11-04T06:41:20.336Z,9.30
2018-11-04T06:43:47.872Z,9.30
2018-11-04T06:46:16.763Z,9.30
2018-11-04T06:48:44.971Z,9.20
2018-11-04T06:51:12.739Z,9.20
2018-11-04T06:53:41.031Z,9.20
2018-11-04T06:56:09.832Z,9.30
2018-11-04T06:58:37.379Z,9.30
2018-11-04T07:01:06.080Z,9.30
2018-11-04T07:03:33.629Z,9.40
2018-11-04T07:06:02.008Z,9.40
2018-11-04T07:08:29.608Z,9.50
2018-11-04T07:10:57.119Z,9.50
2018-11-04T07:13:24.808Z,9.50
2018-11-04T07:15:52.342Z,9.60
2018-11-04T07:18:20.445Z,9.60
2018-11-04T07:20:48.843Z,9.60
2018-11-04T07:23:16.356Z,9.60
2018-11-04T07:25:45.050Z,9.70
2018-11-04T07:28:13.619Z,9.70
2018-11-04T07:30:41.181Z,9.80
2018-11-04T07:33:09.565Z,9.70
2018-11-04T07:35:37.615Z,9.80
2018-11-04T07:38:05.848Z,9.90
2018-11-04T07:40:33.355Z,9.90
2018-11-04T07:43:01.547Z,9.90
2018-11-04T07:45:29.597Z,9.90
2018-11-04T07:47:57.491Z,10.00
2018-11-04T07:50:25.145Z,10.00
2018-11-04T07:52:52.591Z,10.10
2018-11-04T07:55:20.779Z,10.20
2018-11-04T07:57:48.856Z,10.20
2018-11-04T08:00:16.690Z,10.20
2018-11-04T08:02:45.259Z,10.10
2018-11-04T08:05:12.943Z,10.20
2018-11-04T08:07:41.470Z,10.20
2018-11-04T08:10:10.928Z,10.20
2018-11-04T08:12:39.690Z,10.30
2018-11-04T08:15:09.191Z,10.40
2018-11-04T08:17:37.437Z,10.50
2018-11-04T08:20:06.424Z,10.50
2018-11-04T08:22:33.968Z,10.60
2018-11-04T08:25:03.118Z,10.60
2018-11-04T08:27:30.766Z,10.70
2018-11-04T08:29:58.715Z,10.80
2018-11-04T08:32:26.762Z,10.80
2018-11-04T08:34:55.859Z,10.90
2018-11-04T08:37:23.482Z,10.90
2018-11-04T08:39:51.080Z,10.90
2018-11-04T08:42:19.048Z,10.90
2018-11-04T08:44:46.592Z,10.90
2018-11-04T08:47:14.324Z,10.90
2018-11-04T08:49:42.672Z,10.90
2018-11-04T08:52:10.298Z,11.00
2018-11-04T08:54:39.016Z,11.00
2018-11-04T08:57:07.192Z,11.10
2018-11-04T08:59:35.009Z,11.10
2018-11-04T09:02:02.684Z,11.20
2018-11-04T09:04:30.283Z,11.20
2018-11-04T09:06:58.473Z,11.10
2018-11-04T09:09:26.028Z,11.10
2018-11-04T09:11:53.576Z,11.10
2018-11-04T09:14:21.323Z,11.10
2018-11-04T09:16:49.347Z,11.20
2018-11-04T09:19:17.872Z,11.20
2018-11-04T09:21:45.446Z,11.20
2018-11-04T09:24:15.637Z,11.20
2018-11-04T09:26:43.447Z,11.20
2018-11-04T09:29:11.847Z,11.20
2018-11-04T09:31:39.850Z,11.20
2018-11-04T09:34:07.771Z,11.20
2018-11-04T09:36:35.317Z,11.10
2018-11-04T09:39:05.098Z,11.20
2018-11-04T09:41:32.672Z,11.20
2018-11-04T09:44:00.584Z,11.20
2018-11-04T09:46:28.216Z,11.30
2018-11-04T09:48:57.739Z,11.30
2018-11-04T09:51:25.296Z,11.30
2018-11-04T09:53:52.825Z,11.30
2018-11-04T09:56:21.077Z,11.40
2018-11-04T09:58:48.568Z,11.40
2018-11-04T10:01:16.241Z,11.40
2018-11-04T10:03:43.866Z,11.40
2018-11-04T10:06:12.704Z,11.40
2018-11-04T10:08:40.283Z,11.40
2018-11-04T10:11:07.985Z,11.40
2018-11-04T10:13:36.691Z,11.40
2018-11-04T10:16:04.604Z,11.40
2018-11-04T10:18:32.712Z,11.40
2018-11-04T10:21:00.625Z,11.50
2018-11-04T10:23:27.792Z,11.60
2018-11-04T10:25:55.865Z,11.50
2018-11-04T10:28:24.035Z,11.60
2018-11-04T10:30:52.352Z,11.60
2018-11-04T10:33:20.424Z,11.70
2018-11-04T10:35:47.986Z,11.70
2018-11-04T10:38:15.603Z,11.70
2018-11-04T10:40:44.284Z,11.70
2018-11-04T10:43:12.831Z,11.70
2018-11-04T10:45:40.423Z,11.80
2018-11-04T10:48:08.659Z,11.70
2018-11-04T10:50:36.296Z,11.80
2018-11-04T10:53:04.211Z,11.80
2018-11-04T10:55:32.356Z,11.80
2018-11-04T10:58:00.044Z,11.90
2018-11-04T11:00:33.352Z,11.90
2018-11-04T11:03:00.904Z,11.90
2018-11-04T11:05:28.540Z,11.90
2018-11-04T11:07:56.496Z,11.90
2018-11-04T11:10:24.056Z,11.90
2018-11-04T11:12:52.080Z,12.00
2018-11-04T11:15:19.770Z,12.00
2018-11-04T11:17:47.839Z,12.00
2018-11-04T11:20:15.396Z,12.10
2018-11-04T11:22:43.026Z,12.10
2018-11-04T11:25:11.692Z,12.00
2018-11-04T11:27:40.667Z,12.00
2018-11-04T11:30:08.491Z,12.10
2018-11-04T11:32:36.818Z,12.10
2018-11-04T11:35:05.725Z,12.10
2018-11-04T11:37:33.360Z,12.10
2018-11-04T11:40:01.425Z,12.00
2018-11-04T11:42:29.404Z,12.10
2018-11-04T11:44:57.479Z,12.00
2018-11-04T11:47:25.463Z,12.10
2018-11-04T11:49:53.632Z,12.20
2018-11-04T11:52:21.992Z,12.20
2018-11-04T11:54:50.449Z,12.10
2018-11-04T11:57:19.901Z,12.30
2018-11-04T11:59:48.244Z,12.20
2018-11-04T12:02:15.872Z,12.30
2018-11-04T12:04:43.544Z,12.30
2018-11-04T12:07:11.936Z,12.50
2018-11-04T12:09:42.170Z,12.60
2018-11-04T12:12:09.764Z,12.70
2018-11-04T12:14:37.472Z,12.70
2018-11-04T12:17:06.099Z,12.80
2018-11-04T12:19:35.067Z,12.90
2018-11-04T12:22:04.305Z,13.00
2018-11-04T12:24:32.447Z,13.00
2018-11-04T12:27:01.136Z,13.10
2018-11-04T12:29:28.660Z,13.00
2018-11-04T12:31:56.234Z,13.00
2018-11-04T12:34:24.682Z,13.00
2018-11-04T12:36:53.190Z,12.90
2018-11-04T12:39:21.141Z,12.90
2018-11-04T12:41:49.721Z,13.00
2018-11-04T12:44:18.772Z,13.00
2018-11-04T12:46:47.233Z,13.00
2018-11-04T12:49:15.173Z,12.90
2018-11-04T12:51:42.897Z,13.00
2018-11-04T12:54:12.613Z,12.90
2018-11-04T12:56:41.547Z,13.00
2018-11-04T12:59:10.252Z,13.00
2018-11-04T13:01:38.218Z,13.00
2018-11-04T13:04:07.685Z,13.00
2018-11-04T13:06:35.793Z,13.10
2018-11-04T13:09:04.924Z,13.10
2018-11-04T13:11:32.597Z,13.10
2018-11-04T13:14:00.883Z,13.20
2018-11-04T13:16:29.530Z,13.10
2018-11-04T13:18:58.897Z,13.10
2018-11-04T13:21:26.657Z,13.10
2018-11-04T13:23:54.872Z,13.10
2018-11-04T13:26:22.990Z,13.00
2018-11-04T13:28:50.799Z,13.00
2018-11-04T13:31:18.992Z,12.80
2018-11-04T13:33:47.094Z,12.80
2018-11-04T13:36:14.704Z,12.90
2018-11-04T13:38:42.513Z,12.80
2018-11-04T13:41:11.990Z,12.80
2018-11-04T13:43:40.968Z,12.90
2018-11-04T13:46:10.473Z,12.80
2018-11-04T13:48:39.163Z,12.70
2018-11-04T13:51:08.176Z,12.70
2018-11-04T13:53:36.085Z,12.70
2018-11-04T13:56:04.479Z,12.70
2018-11-04T13:58:32.367Z,12.70
2018-11-04T14:00:59.993Z,12.60
2018-11-04T14:03:27.684Z,12.60
2018-11-04T14:05:56.369Z,12.70
2018-11-04T14:08:24.000Z,12.60
2018-11-04T14:10:51.803Z,12.60
2018-11-04T14:13:19.749Z,12.60
2018-11-04T14:15:47.336Z,12.60
2018-11-04T14:18:16.287Z,12.50
2018-11-04T14:20:45.329Z,12.50
2018-11-04T14:23:13.117Z,12.50
2018-11-04T14:25:41.329Z,12.50
2018-11-04T14:28:09.134Z,12.50
2018-11-04T14:30:38.228Z,12.40
2018-11-04T14:33:06.879Z,12.30
2018-11-04T14:35:34.418Z,12.40
2018-11-04T14:38:02.011Z,12.40
2018-11-04T14:40:30.095Z,12.30
2018-11-04T14:42:58.973Z,12.40
2018-11-04T14:45:26.544Z,12.30
2018-11-04T14:47:54.837Z,12.30
2018-11-04T14:50:22.497Z,12.20
2018-11-04T14:52:50.876Z,12.20
2018-11-04T14:55:19.265Z,12.10
2018-11-04T14:57:47.311Z,12.10
2018-11-04T15:00:16.493Z,12.10
2018-11-04T15:02:44.530Z,12.10
2018-11-04T15:05:12.208Z,12.00
2018-11-04T15:07:40.567Z,12.00
2018-11-04T15:10:10.383Z,12.00
2018-11-04T15:12:38.064Z,12.00
2018-11-04T15:15:08.098Z,12.00
2018-11-04T15:17:36.727Z,11.90
2018-11-04T15:20:05.612Z,11.90
2018-11-04T15:22:33.127Z,11.80
2018-11-04T15:25:01.974Z,11.80
2018-11-04T15:27:29.537Z,11.70
2018-11-04T15:29:57.065Z,11.70
2018-11-04T15:32:25.719Z,11.70
2018-11-04T15:34:54.403Z,11.60
2018-11-04T15:37:22.335Z,11.60
2018-11-04T15:39:50.627Z,11.50
2018-11-04T15:42:18.271Z,11.50
2018-11-04T15:44:45.846Z,11.50
2018-11-04T15:47:13.431Z,11.40
2018-11-04T15:49:41.365Z,11.30
2018-11-04T15:52:09.036Z,11.30
2018-11-04T15:54:37.756Z,11.30
2018-11-04T15:57:14.768Z,11.20
2018-11-04T15:59:44.137Z,11.20
2018-11-04T16:02:12.167Z,11.20
2018-11-04T16:04:44.540Z,11.10
2018-11-04T16:07:07.884Z,11.10
2018-11-04T16:09:35.889Z,11.00
2018-11-04T16:12:03.920Z,11.00
2018-11-04T16:14:31.440Z,11.00
2018-11-04T16:16:59.763Z,10.90
2018-11-04T16:19:27.475Z,10.90
2018-11-04T16:21:56.116Z,10.90
2018-11-04T16:24:24.368Z,10.80
2018-11-04T16:26:51.936Z,10.70
2018-11-04T16:29:20.172Z,10.70
2018-11-04T16:31:48.412Z,10.60
2018-11-04T16:34:16.040Z,10.60
2018-11-04T16:36:44.336Z,10.60
2018-11-04T16:39:12.668Z,10.60
2018-11-04T16:41:40.220Z,10.60
2018-11-04T16:44:08.617Z,10.60
2018-11-04T16:46:37.016Z,10.50
2018-11-04T16:49:06.168Z,10.50
2018-11-04T16:51:34.002Z,10.50
2018-11-04T16:54:02.189Z,10.50
2018-11-04T16:56:30.369Z,10.50
2018-11-04T16:58:58.886Z,10.50
2018-11-04T17:01:26.427Z,10.40
2018-11-04T17:03:54.028Z,10.40
2018-11-04T17:06:22.486Z,10.40
2018-11-04T17:08:49.989Z,10.30
2018-11-04T17:11:18.145Z,10.30
2018-11-04T17:13:46.730Z,10.30
2018-11-04T17:16:15.323Z,10.20
2018-11-04T17:18:42.879Z,10.20
2018-11-04T17:21:10.648Z,10.20
2018-11-04T17:23:38.400Z,10.10
2018-11-04T17:26:06.916Z,10.00
2018-11-04T17:28:35.595Z,10.00
2018-11-04T17:31:04.396Z,10.00
2018-11-04T17:33:33.389Z,9.90
2018-11-04T17:36:01.019Z,9.90
2018-11-04T17:38:28.552Z,9.90
2018-11-04T17:40:57.464Z,9.90
2018-11-04T17:43:25.894Z,9.90
2018-11-04T17:45:55.002Z,9.90
2018-11-04T17:48:23.636Z,9.90
2018-11-04T17:50:51.261Z,9.80
2018-11-04T17:53:18.866Z,9.80
2018-11-04T17:55:48.011Z,9.90
2018-11-04T17:58:15.650Z,9.80
2018-11-04T18:00:43.461Z,9.80
2018-11-04T18:03:11.208Z,9.90
2018-11-04T18:05:39.741Z,9.80
2018-11-04T18:08:08.333Z,9.70
2018-11-04T18:10:36.915Z,9.70
2018-11-04T18:13:05.411Z,9.70
2018-11-04T18:15:33.492Z,9.60
2018-11-04T18:18:01.515Z,9.60
2018-11-04T18:20:29.712Z,9.50
2018-11-04T18:22:57.527Z,9.50
2018-11-04T18:25:25.966Z,9.50
2018-11-04T18:27:53.547Z,9.40
2018-11-04T18:30:22.552Z,9.40
2018-11-04T18:32:50.280Z,9.40
2018-11-04T18:35:18.209Z,9.40
2018-11-04T18:37:46.924Z,9.20
2018-11-04T18:40:17.224Z,9.30
2018-11-04T18:42:45.220Z,9.30
2018-11-04T18:45:14.144Z,9.20
2018-11-04T18:47:42.093Z,9.20
2018-11-04T18:50:12.552Z,9.20
2018-11-04T18:52:41.678Z,9.20
2018-11-04T18:55:11.027Z,9.10
2018-11-04T18:57:40.540Z,9.10
2018-11-04T19:00:12.011Z,9.00
2018-11-04T19:02:39.555Z,9.00
2018-11-04T19:05:08.176Z,8.90
2018-11-04T19:07:36.806Z,8.90
2018-11-04T19:10:06.790Z,8.90
2018-11-04T19:12:34.385Z,8.90
2018-11-04T19:15:03.049Z,8.90
2018-11-04T19:17:32.482Z,8.80
2018-11-04T19:20:00.617Z,8.80
2018-11-04T19:22:28.312Z,8.80
2018-11-04T19:24:56.491Z,8.70
2018-11-04T19:27:24.251Z,8.70
2018-11-04T19:29:53.264Z,8.70
2018-11-04T19:32:21.811Z,8.60
2018-11-04T19:34:49.597Z,8.60
2018-11-04T19:37:17.644Z,8.60
2018-11-04T19:39:46.601Z,8.60
2018-11-04T19:42:14.573Z,8.50
2018-11-04T19:44:43.468Z,8.50
2018-11-04T19:47:13.656Z,8.40
2018-11-04T19:49:42.192Z,8.40
2018-11-04T19:52:09.840Z,8.40
2018-11-04T19:54:38.222Z,8.30
2018-11-04T19:57:06.717Z,8.20
2018-11-04T19:59:34.969Z,8.20
2018-11-04T20:02:02.545Z,8.20
2018-11-04T20:04:30.869Z,8.20
2018-11-04T20:06:59.731Z,8.20
2018-11-04T20:09:28.499Z,8.10
2018-11-04T20:11:56.088Z,8.10
2018-11-04T20:14:26.097Z,8.00
2018-11-04T20:16:54.893Z,8.10
2018-11-04T20:19:29.306Z,8.00
2018-11-04T20:21:56.960Z,8.00
2018-11-04T20:24:31.568Z,8.00
2018-11-04T20:26:59.244Z,8.00
2018-11-04T20:29:28.892Z,8.00
2018-11-04T20:33:03.426Z,7.90
2018-11-04T20:35:31.821Z,8.00
2018-11-04T20:38:00.575Z,7.90
2018-11-04T20:40:33.682Z,8.00
2018-11-04T20:43:02.596Z,8.00
2018-11-04T20:45:30.438Z,7.90
2018-11-04T20:48:05.280Z,8.00
2018-11-04T20:50:38.683Z,8.00
2018-11-04T20:53:06.485Z,8.00
2018-11-04T20:55:41.715Z,8.00
2018-11-04T20:58:09.929Z,8.00
2018-11-04T21:00:38.184Z,8.00
2018-11-04T21:03:06.465Z,8.10
2018-11-04T21:05:35.764Z,8.20
2018-11-04T21:08:03.426Z,8.20
2018-11-04T21:10:30.989Z,8.20
2018-11-04T21:13:00.102Z,8.20
2018-11-04T21:15:28.196Z,8.20
2018-11-04T21:17:56.576Z,8.30
2018-11-04T21:20:24.875Z,8.30
2018-11-04T21:22:52.441Z,8.30
2018-11-04T21:25:20.475Z,8.30
2018-11-04T21:27:48.188Z,8.30
2018-11-04T21:30:16.316Z,8.30
2018-11-04T21:32:44.143Z,8.40
2018-11-04T21:35:11.721Z,8.40
2018-11-04T21:37:41.452Z,8.40
2018-11-04T21:40:10.180Z,8.40
2018-11-04T21:42:38.392Z,8.30
2018-11-04T21:45:08.251Z,8.40
2018-11-04T21:47:35.850Z,8.40
2018-11-04T21:50:05.435Z,8.40
2018-11-04T21:52:33.010Z,8.50
2018-11-04T21:55:01.316Z,8.50
2018-11-04T21:57:29.925Z,8.50
2018-11-04T21:59:57.672Z,8.60
2018-11-04T22:02:25.745Z,8.60
2018-11-04T22:04:53.427Z,8.60
2018-11-04T22:07:22.075Z,8.70
2018-11-04T22:09:49.885Z,8.70
2018-11-04T22:12:17.484Z,8.70
2018-11-04T22:14:45.080Z,8.70
2018-11-04T22:17:13.459Z,8.80
2018-11-04T22:19:41.021Z,8.80
2018-11-04T22:22:08.651Z,8.80
2018-11-04T22:24:37.291Z,8.80
2018-11-04T22:27:07.307Z,8.80
2018-11-04T22:29:34.947Z,8.80
2018-11-04T22:32:03.336Z,8.70
2018-11-04T22:34:30.890Z,8.70
2018-11-04T22:36:58.735Z,8.70
2018-11-04T22:39:27.082Z,8.80
2018-11-04T22:41:55.186Z,8.90
2018-11-04T22:44:23.204Z,8.80
2018-11-04T22:46:50.836Z,8.80
2018-11-04T22:49:19.560Z,8.80
2018-11-04T22:51:47.179Z,8.80
2018-11-04T22:54:15.429Z,8.80
2018-11-04T22:56:43.481Z,8.70
2018-11-04T22:59:11.537Z,8.80
2018-11-04T23:01:39.750Z,8.80
2018-11-04T23:04:07.435Z,8.80
2018-11-04T23:06:35.818Z,9.00
2018-11-04T23:09:05.147Z,9.30
2018-11-04T23:11:32.735Z,9.60
2018-11-04T23:14:00.309Z,9.90
2018-11-04T23:16:29.234Z,10.20
2018-11-04T23:18:57.713Z,10.30
2018-11-04T23:21:25.240Z,10.40
2018-11-04T23:23:52.763Z,10.40
2018-11-04T23:26:20.810Z,10.40
2018-11-04T23:28:50.437Z,10.50
2018-11-04T23:31:18.647Z,10.50
2018-11-04T23:33:46.187Z,10.60
2018-11-04T23:36:14.195Z,10.60
2018-11-04T23:38:42.304Z,10.70
2018-11-04T23:41:10.621Z,10.70
2018-11-04T23:43:38.146Z,10.70
2018-11-04T23:46:06.473Z,10.80
2018-11-04T23:48:34.485Z,10.80
2018-11-04T23:51:02.075Z,10.70
2018-11-04T23:53:30.226Z,10.80
2018-11-04T23:55:58.305Z,10.90
2018-11-04T23:58:26.413Z,10.90
